sensor_id;sensor_type;location;lat;lon;timestamp;pressure;altitude;pressure_sealevel;temperature;humidity
45369;BME280;51342;55.250;37.668;2023-04-07T00:03:45;100385.38;;;2.91;50.78
45369;BME280;51342;55.250;37.668;2023-04-07T00:06:16;100391.06;;;2.89;51.49
45369;BME280;51342;55.250;37.668;2023-04-07T00:08:47;100391.53;;;2.85;50.84
45369;BME280;51342;55.250;37.668;2023-04-07T00:11:19;100394.84;;;2.84;51.18
45369;BME280;51342;55.250;37.668;2023-04-07T00:13:50;100387.31;;;2.77;51.31
45369;BME280;51342;55.250;37.668;2023-04-07T00:16:22;100391.66;;;2.78;51.38
45369;BME280;51342;55.250;37.668;2023-04-07T00:18:53;100397.38;;;2.75;51.49
45369;BME280;51342;55.250;37.668;2023-04-07T00:21:24;100392.56;;;2.70;51.67
45369;BME280;51342;55.250;37.668;2023-04-07T00:23:57;100393.00;;;2.65;51.72
45369;BME280;51342;55.250;37.668;2023-04-07T00:26:29;100397.06;;;2.63;51.66
45369;BME280;51342;55.250;37.668;2023-04-07T00:29:03;100395.28;;;2.62;51.95
45369;BME280;51342;55.250;37.668;2023-04-07T00:31:34;100394.81;;;2.58;52.08
45369;BME280;51342;55.250;37.668;2023-04-07T00:34:05;100384.56;;;2.49;51.81
45369;BME280;51342;55.250;37.668;2023-04-07T00:36:37;100390.44;;;2.48;52.34
45369;BME280;51342;55.250;37.668;2023-04-07T00:39:08;100396.16;;;2.46;52.01
45369;BME280;51342;55.250;37.668;2023-04-07T00:41:40;100400.19;;;2.44;52.25
45369;BME280;51342;55.250;37.668;2023-04-07T00:44:12;100397.19;;;2.39;52.48
45369;BME280;51342;55.250;37.668;2023-04-07T00:46:46;100394.19;;;2.34;52.59
45369;BME280;51342;55.250;37.668;2023-04-07T00:49:17;100393.09;;;2.32;52.66
45369;BME280;51342;55.250;37.668;2023-04-07T00:51:49;100402.25;;;2.30;52.92
45369;BME280;51342;55.250;37.668;2023-04-07T00:54:22;100405.84;;;2.24;53.35
45369;BME280;51342;55.250;37.668;2023-04-07T00:56:53;100402.84;;;2.19;53.45
45369;BME280;51342;55.250;37.668;2023-04-07T00:59:26;100400.72;;;2.15;53.39
45369;BME280;51342;55.250;37.668;2023-04-07T01:02:09;100403.53;;;2.09;53.30
45369;BME280;51342;55.250;37.668;2023-04-07T01:04:57;100396.16;;;2.04;53.44
45369;BME280;51342;55.250;37.668;2023-04-07T01:07:37;100405.47;;;2.03;53.86
45369;BME280;51342;55.250;37.668;2023-04-07T01:10:20;100402.50;;;1.99;53.73
45369;BME280;51342;55.250;37.668;2023-04-07T01:13:05;100400.03;;;1.92;54.01
45369;BME280;51342;55.250;37.668;2023-04-07T01:15:39;100400.63;;;1.89;54.32
45369;BME280;51342;55.250;37.668;2023-04-07T01:18:15;100400.31;;;1.86;54.16
45369;BME280;51342;55.250;37.668;2023-04-07T01:20:50;100401.06;;;1.85;54.17
45369;BME280;51342;55.250;37.668;2023-04-07T01:23:38;100404.50;;;1.77;54.24
45369;BME280;51342;55.250;37.668;2023-04-07T01:26:19;100404.16;;;1.74;54.40
45369;BME280;51342;55.250;37.668;2023-04-07T01:31:38;100406.09;;;1.68;54.44
45369;BME280;51342;55.250;37.668;2023-04-07T01:34:11;100406.09;;;1.68;54.66
45369;BME280;51342;55.250;37.668;2023-04-07T01:36:44;100406.69;;;1.65;54.75
45369;BME280;51342;55.250;37.668;2023-04-07T01:39:17;100405.59;;;1.63;54.98
45369;BME280;51342;55.250;37.668;2023-04-07T01:41:50;100404.22;;;1.58;55.10
45369;BME280;51342;55.250;37.668;2023-04-07T01:44:25;100395.94;;;1.52;55.17
45369;BME280;51342;55.250;37.668;2023-04-07T01:46:58;100394.13;;;1.51;55.42
45369;BME280;51342;55.250;37.668;2023-04-07T01:49:31;100396.06;;;1.45;55.47
45369;BME280;51342;55.250;37.668;2023-04-07T01:52:04;100395.00;;;1.43;55.40
45369;BME280;51342;55.250;37.668;2023-04-07T01:54:36;100399.22;;;1.42;55.61
45369;BME280;51342;55.250;37.668;2023-04-07T01:57:08;100393.78;;;1.39;55.66
45369;BME280;51342;55.250;37.668;2023-04-07T01:59:39;100404.13;;;1.41;55.95
45369;BME280;51342;55.250;37.668;2023-04-07T02:02:11;100399.63;;;1.38;55.98
45369;BME280;51342;55.250;37.668;2023-04-07T02:04:48;100401.84;;;1.35;55.93
45369;BME280;51342;55.250;37.668;2023-04-07T02:07:34;100404.50;;;1.28;56.09
45369;BME280;51342;55.250;37.668;2023-04-07T02:10:11;100393.81;;;1.23;56.24
45369;BME280;51342;55.250;37.668;2023-04-07T02:12:44;100406.75;;;1.25;56.30
45369;BME280;51342;55.250;37.668;2023-04-07T02:15:21;100402.06;;;1.21;56.53
45369;BME280;51342;55.250;37.668;2023-04-07T02:17:56;100407.00;;;1.19;56.48
45369;BME280;51342;55.250;37.668;2023-04-07T02:20:29;100408.63;;;1.19;56.63
45369;BME280;51342;55.250;37.668;2023-04-07T02:23:00;100407.72;;;1.18;56.51
45369;BME280;51342;55.250;37.668;2023-04-07T02:25:32;100415.97;;;1.16;56.68
45369;BME280;51342;55.250;37.668;2023-04-07T02:28:07;100413.81;;;1.12;56.95
45369;BME280;51342;55.250;37.668;2023-04-07T02:30:38;100407.34;;;1.06;56.81
45369;BME280;51342;55.250;37.668;2023-04-07T02:33:10;100416.63;;;1.06;57.09
45369;BME280;51342;55.250;37.668;2023-04-07T02:35:41;100417.97;;;1.02;57.20
45369;BME280;51342;55.250;37.668;2023-04-07T02:38:13;100425.44;;;1.01;57.38
45369;BME280;51342;55.250;37.668;2023-04-07T02:40:44;100422.88;;;1.01;57.32
45369;BME280;51342;55.250;37.668;2023-04-07T02:43:15;100421.09;;;1.00;57.25
45369;BME280;51342;55.250;37.668;2023-04-07T02:45:47;100422.72;;;0.99;57.22
45369;BME280;51342;55.250;37.668;2023-04-07T02:48:19;100419.84;;;0.96;57.52
45369;BME280;51342;55.250;37.668;2023-04-07T02:50:50;100420.44;;;0.94;57.21
45369;BME280;51342;55.250;37.668;2023-04-07T02:53:21;100419.84;;;0.96;57.43
45369;BME280;51342;55.250;37.668;2023-04-07T02:55:53;100420.59;;;0.95;57.44
45369;BME280;51342;55.250;37.668;2023-04-07T02:58:24;100423.72;;;0.93;57.41
45369;BME280;51342;55.250;37.668;2023-04-07T03:00:56;100422.19;;;0.86;57.54
45369;BME280;51342;55.250;37.668;2023-04-07T03:03:31;100422.75;;;0.84;57.70
45369;BME280;51342;55.250;37.668;2023-04-07T03:06:22;100420.78;;;0.81;57.89
45369;BME280;51342;55.250;37.668;2023-04-07T03:09:14;100425.28;;;0.84;58.26
45369;BME280;51342;55.250;37.668;2023-04-07T03:11:46;100427.69;;;0.82;58.10
45369;BME280;51342;55.250;37.668;2023-04-07T03:14:17;100430.56;;;0.85;58.17
45369;BME280;51342;55.250;37.668;2023-04-07T03:16:51;100424.53;;;0.85;58.11
45369;BME280;51342;55.250;37.668;2023-04-07T03:19:23;100432.69;;;0.89;58.06
45369;BME280;51342;55.250;37.668;2023-04-07T03:21:55;100441.41;;;0.91;58.13
45369;BME280;51342;55.250;37.668;2023-04-07T03:24:26;100434.47;;;0.90;58.16
45369;BME280;51342;55.250;37.668;2023-04-07T03:26:57;100438.41;;;0.95;58.00
45369;BME280;51342;55.250;37.668;2023-04-07T03:29:42;100442.84;;;1.05;58.11
45369;BME280;51342;55.250;37.668;2023-04-07T03:32:17;100446.94;;;1.12;57.88
45369;BME280;51342;55.250;37.668;2023-04-07T03:34:48;100445.81;;;1.17;57.82
45369;BME280;51342;55.250;37.668;2023-04-07T03:37:20;100443.75;;;1.21;57.75
45369;BME280;51342;55.250;37.668;2023-04-07T03:39:52;100442.72;;;1.28;57.79
45369;BME280;51342;55.250;37.668;2023-04-07T03:42:32;100447.97;;;1.29;57.65
45369;BME280;51342;55.250;37.668;2023-04-07T03:45:08;100438.63;;;1.37;57.54
45369;BME280;51342;55.250;37.668;2023-04-07T03:47:42;100447.13;;;1.53;57.34
45369;BME280;51342;55.250;37.668;2023-04-07T03:50:13;100448.56;;;1.76;57.06
45369;BME280;51342;55.250;37.668;2023-04-07T03:52:56;100450.03;;;1.98;56.82
45369;BME280;51342;55.250;37.668;2023-04-07T03:55:31;100449.25;;;2.24;56.34
45369;BME280;51342;55.250;37.668;2023-04-07T03:58:12;100437.44;;;2.33;56.01
45369;BME280;51342;55.250;37.668;2023-04-07T04:00:44;100450.25;;;2.50;56.03
45369;BME280;51342;55.250;37.668;2023-04-07T04:03:17;100448.16;;;2.63;55.51
45369;BME280;51342;55.250;37.668;2023-04-07T04:06:03;100448.03;;;2.71;54.81
45369;BME280;51342;55.250;37.668;2023-04-07T04:08:36;100435.41;;;2.81;54.79
45369;BME280;51342;55.250;37.668;2023-04-07T04:11:09;100444.13;;;3.00;54.81
45369;BME280;51342;55.250;37.668;2023-04-07T04:13:49;100445.06;;;3.09;54.06
45369;BME280;51342;55.250;37.668;2023-04-07T04:16:20;100438.72;;;3.23;53.83
45369;BME280;51342;55.250;37.668;2023-04-07T04:18:54;100451.03;;;3.44;54.01
45369;BME280;51342;55.250;37.668;2023-04-07T04:21:26;100455.38;;;3.63;53.42
45369;BME280;51342;55.250;37.668;2023-04-07T04:23:57;100454.47;;;3.71;52.86
45369;BME280;51342;55.250;37.668;2023-04-07T04:26:30;100458.34;;;3.85;52.53
45369;BME280;51342;55.250;37.668;2023-04-07T04:29:08;100458.19;;;3.92;52.18
45369;BME280;51342;55.250;37.668;2023-04-07T04:31:40;100453.59;;;4.07;51.83
45369;BME280;51342;55.250;37.668;2023-04-07T04:34:12;100456.28;;;4.17;51.78
45369;BME280;51342;55.250;37.668;2023-04-07T04:36:44;100458.50;;;4.31;51.91
45369;BME280;51342;55.250;37.668;2023-04-07T04:39:16;100460.66;;;4.45;51.08
45369;BME280;51342;55.250;37.668;2023-04-07T04:41:47;100464.69;;;4.52;50.82
45369;BME280;51342;55.250;37.668;2023-04-07T04:44:19;100456.97;;;4.61;50.43
45369;BME280;51342;55.250;37.668;2023-04-07T04:46:51;100457.88;;;4.61;50.41
45369;BME280;51342;55.250;37.668;2023-04-07T04:49:23;100459.81;;;4.64;50.70
45369;BME280;51342;55.250;37.668;2023-04-07T04:51:55;100458.22;;;4.74;49.99
45369;BME280;51342;55.250;37.668;2023-04-07T04:54:27;100465.25;;;4.86;49.89
45369;BME280;51342;55.250;37.668;2023-04-07T04:57:00;100469.94;;;4.81;49.65
45369;BME280;51342;55.250;37.668;2023-04-07T04:59:32;100470.50;;;4.87;49.73
45369;BME280;51342;55.250;37.668;2023-04-07T05:02:07;100473.72;;;5.03;49.49
45369;BME280;51342;55.250;37.668;2023-04-07T05:04:39;100474.44;;;5.11;49.42
45369;BME280;51342;55.250;37.668;2023-04-07T05:07:25;100472.69;;;5.20;48.85
45369;BME280;51342;55.250;37.668;2023-04-07T05:09:57;100469.00;;;5.27;48.92
45369;BME280;51342;55.250;37.668;2023-04-07T05:12:28;100477.41;;;5.35;48.89
45369;BME280;51342;55.250;37.668;2023-04-07T05:15:05;100473.31;;;5.37;48.68
45369;BME280;51342;55.250;37.668;2023-04-07T05:17:36;100483.50;;;5.45;47.87
45369;BME280;51342;55.250;37.668;2023-04-07T05:20:09;100480.66;;;5.42;48.01
45369;BME280;51342;55.250;37.668;2023-04-07T05:22:43;100476.63;;;5.36;48.12
45369;BME280;51342;55.250;37.668;2023-04-07T05:25:17;100472.19;;;5.24;48.01
45369;BME280;51342;55.250;37.668;2023-04-07T05:27:51;100472.63;;;5.29;48.27
45369;BME280;51342;55.250;37.668;2023-04-07T05:30:22;100481.28;;;5.40;48.14
45369;BME280;51342;55.250;37.668;2023-04-07T05:32:54;100482.81;;;5.56;48.14
45369;BME280;51342;55.250;37.668;2023-04-07T05:35:43;100484.78;;;5.69;47.38
45369;BME280;51342;55.250;37.668;2023-04-07T05:38:14;100487.34;;;5.69;47.34
45369;BME280;51342;55.250;37.668;2023-04-07T05:40:47;100483.25;;;5.71;47.64
45369;BME280;51342;55.250;37.668;2023-04-07T05:43:26;100484.13;;;5.91;47.35
45369;BME280;51342;55.250;37.668;2023-04-07T05:45:57;100492.69;;;6.10;47.17
45369;BME280;51342;55.250;37.668;2023-04-07T05:48:29;100491.56;;;6.17;46.87
45369;BME280;51342;55.250;37.668;2023-04-07T05:51:00;100488.09;;;6.16;46.99
45369;BME280;51342;55.250;37.668;2023-04-07T05:53:32;100500.19;;;6.27;46.46
45369;BME280;51342;55.250;37.668;2023-04-07T05:56:03;100495.34;;;6.30;46.49
45369;BME280;51342;55.250;37.668;2023-04-07T05:58:53;100488.63;;;6.22;46.94
45369;BME280;51342;55.250;37.668;2023-04-07T06:01:25;100488.28;;;6.38;46.87
45369;BME280;51342;55.250;37.668;2023-04-07T06:03:57;100487.81;;;6.52;47.26
45369;BME280;51342;55.250;37.668;2023-04-07T06:06:31;100494.34;;;6.69;46.95
45369;BME280;51342;55.250;37.668;2023-04-07T06:09:02;100488.72;;;6.73;46.52
45369;BME280;51342;55.250;37.668;2023-04-07T06:11:34;100488.72;;;6.73;46.20
45369;BME280;51342;55.250;37.668;2023-04-07T06:14:05;100496.94;;;6.79;46.18
45369;BME280;51342;55.250;37.668;2023-04-07T06:16:36;100494.66;;;6.82;46.01
45369;BME280;51342;55.250;37.668;2023-04-07T06:19:08;100500.81;;;6.95;45.72
45369;BME280;51342;55.250;37.668;2023-04-07T06:21:39;100501.59;;;6.94;45.64
45369;BME280;51342;55.250;37.668;2023-04-07T06:24:11;100495.41;;;7.02;45.47
45369;BME280;51342;55.250;37.668;2023-04-07T06:26:43;100503.63;;;7.08;45.38
45369;BME280;51342;55.250;37.668;2023-04-07T06:29:15;100498.75;;;7.11;45.01
45369;BME280;51342;55.250;37.668;2023-04-07T06:31:47;100493.34;;;7.08;44.82
45369;BME280;51342;55.250;37.668;2023-04-07T06:34:18;100493.34;;;7.18;45.41
45369;BME280;51342;55.250;37.668;2023-04-07T06:36:50;100499.38;;;7.29;44.62
45369;BME280;51342;55.250;37.668;2023-04-07T06:39:22;100497.44;;;7.36;44.47
45369;BME280;51342;55.250;37.668;2023-04-07T06:41:53;100495.13;;;7.39;44.57
45369;BME280;51342;55.250;37.668;2023-04-07T06:44:24;100496.13;;;7.52;43.97
45369;BME280;51342;55.250;37.668;2023-04-07T06:46:56;100508.47;;;7.66;43.79
45369;BME280;51342;55.250;37.668;2023-04-07T06:49:27;100497.91;;;7.63;43.33
45369;BME280;51342;55.250;37.668;2023-04-07T06:51:59;100495.81;;;7.69;43.35
45369;BME280;51342;55.250;37.668;2023-04-07T06:54:30;100498.38;;;7.79;42.99
45369;BME280;51342;55.250;37.668;2023-04-07T06:57:01;100497.56;;;7.90;43.53
45369;BME280;51342;55.250;37.668;2023-04-07T06:59:33;100498.53;;;8.03;43.17
45369;BME280;51342;55.250;37.668;2023-04-07T07:02:05;100503.41;;;8.10;44.03
45369;BME280;51342;55.250;37.668;2023-04-07T07:04:37;100485.97;;;8.17;42.87
45369;BME280;51342;55.250;37.668;2023-04-07T07:07:09;100494.00;;;8.32;42.81
45369;BME280;51342;55.250;37.668;2023-04-07T07:09:40;100503.53;;;8.43;42.65
45369;BME280;51342;55.250;37.668;2023-04-07T07:12:11;100507.38;;;8.48;42.08
45369;BME280;51342;55.250;37.668;2023-04-07T07:14:45;100495.38;;;8.49;41.67
45369;BME280;51342;55.250;37.668;2023-04-07T07:17:16;100494.16;;;8.56;41.89
45369;BME280;51342;55.250;37.668;2023-04-07T07:19:47;100491.75;;;8.69;42.53
45369;BME280;51342;55.250;37.668;2023-04-07T07:22:19;100496.66;;;8.88;41.31
45369;BME280;51342;55.250;37.668;2023-04-07T07:24:50;100493.53;;;8.92;41.31
45369;BME280;51342;55.250;37.668;2023-04-07T07:27:22;100483.00;;;9.00;40.59
45369;BME280;51342;55.250;37.668;2023-04-07T07:29:53;100495.03;;;9.12;41.12
45369;BME280;51342;55.250;37.668;2023-04-07T07:32:25;100494.03;;;9.10;40.34
45369;BME280;51342;55.250;37.668;2023-04-07T07:34:56;100497.38;;;9.09;40.67
45369;BME280;51342;55.250;37.668;2023-04-07T07:37:27;100499.41;;;9.13;40.19
45369;BME280;51342;55.250;37.668;2023-04-07T07:39:59;100491.09;;;9.17;40.07
45369;BME280;51342;55.250;37.668;2023-04-07T07:42:31;100492.81;;;9.28;40.48
45369;BME280;51342;55.250;37.668;2023-04-07T07:45:02;100489.59;;;9.42;39.75
45369;BME280;51342;55.250;37.668;2023-04-07T07:47:34;100486.22;;;9.43;39.46
45369;BME280;51342;55.250;37.668;2023-04-07T07:50:07;100500.94;;;9.44;39.40
45369;BME280;51342;55.250;37.668;2023-04-07T07:52:39;100495.66;;;9.43;39.34
45369;BME280;51342;55.250;37.668;2023-04-07T07:55:10;100503.16;;;9.51;38.75
45369;BME280;51342;55.250;37.668;2023-04-07T07:57:42;100486.13;;;9.53;39.15
45369;BME280;51342;55.250;37.668;2023-04-07T08:00:13;100489.34;;;9.63;38.52
45369;BME280;51342;55.250;37.668;2023-04-07T08:02:45;100499.03;;;9.65;38.76
45369;BME280;51342;55.250;37.668;2023-04-07T08:05:17;100489.00;;;9.70;37.79
45369;BME280;51342;55.250;37.668;2023-04-07T08:07:48;100492.38;;;9.69;37.73
45369;BME280;51342;55.250;37.668;2023-04-07T08:10:20;100489.50;;;9.76;37.89
45369;BME280;51342;55.250;37.668;2023-04-07T08:12:52;100488.47;;;9.74;37.70
45369;BME280;51342;55.250;37.668;2023-04-07T08:15:23;100500.28;;;9.70;36.94
45369;BME280;51342;55.250;37.668;2023-04-07T08:17:55;100493.63;;;9.74;37.24
45369;BME280;51342;55.250;37.668;2023-04-07T08:20:26;100496.91;;;9.83;38.26
45369;BME280;51342;55.250;37.668;2023-04-07T08:22:59;100496.34;;;9.87;37.67
45369;BME280;51342;55.250;37.668;2023-04-07T08:25:32;100494.31;;;9.83;37.13
45369;BME280;51342;55.250;37.668;2023-04-07T08:28:03;100488.44;;;9.86;37.78
45369;BME280;51342;55.250;37.668;2023-04-07T08:30:34;100482.38;;;9.97;37.79
45369;BME280;51342;55.250;37.668;2023-04-07T08:33:06;100503.03;;;10.08;36.45
45369;BME280;51342;55.250;37.668;2023-04-07T08:35:37;100470.47;;;9.99;35.77
45369;BME280;51342;55.250;37.668;2023-04-07T08:38:09;100483.06;;;9.94;36.02
45369;BME280;51342;55.250;37.668;2023-04-07T08:40:40;100490.47;;;10.01;37.11
45369;BME280;51342;55.250;37.668;2023-04-07T08:43:13;100471.91;;;10.07;36.85
45369;BME280;51342;55.250;37.668;2023-04-07T08:45:49;100485.59;;;10.18;36.15
45369;BME280;51342;55.250;37.668;2023-04-07T08:48:22;100489.56;;;10.24;36.00
45369;BME280;51342;55.250;37.668;2023-04-07T08:50:57;100472.25;;;10.23;35.38
45369;BME280;51342;55.250;37.668;2023-04-07T08:53:35;100488.66;;;10.24;36.04
45369;BME280;51342;55.250;37.668;2023-04-07T08:56:11;100477.16;;;10.32;35.66
45369;BME280;51342;55.250;37.668;2023-04-07T08:58:44;100486.84;;;10.34;35.31
45369;BME280;51342;55.250;37.668;2023-04-07T09:01:15;100478.19;;;10.34;36.46
45369;BME280;51342;55.250;37.668;2023-04-07T09:03:48;100472.53;;;10.40;36.83
45369;BME280;51342;55.250;37.668;2023-04-07T09:06:20;100479.69;;;10.55;35.69
45369;BME280;51342;55.250;37.668;2023-04-07T09:08:51;100475.94;;;10.64;35.24
45369;BME280;51342;55.250;37.668;2023-04-07T09:11:23;100490.56;;;10.63;34.08
45369;BME280;51342;55.250;37.668;2023-04-07T09:13:55;100485.16;;;10.60;34.78
45369;BME280;51342;55.250;37.668;2023-04-07T09:16:28;100474.03;;;10.61;34.21
45369;BME280;51342;55.250;37.668;2023-04-07T09:19:01;100469.53;;;10.58;34.26
45369;BME280;51342;55.250;37.668;2023-04-07T09:21:51;100472.94;;;10.57;34.18
45369;BME280;51342;55.250;37.668;2023-04-07T09:24:25;100469.88;;;10.63;34.06
45369;BME280;51342;55.250;37.668;2023-04-07T09:27:17;100471.47;;;10.61;34.86
45369;BME280;51342;55.250;37.668;2023-04-07T09:29:49;100475.47;;;10.69;34.16
45369;BME280;51342;55.250;37.668;2023-04-07T09:32:36;100480.88;;;10.60;34.34
45369;BME280;51342;55.250;37.668;2023-04-07T09:35:13;100487.44;;;10.55;33.89
45369;BME280;51342;55.250;37.668;2023-04-07T09:38:09;100470.34;;;10.57;34.50
45369;BME280;51342;55.250;37.668;2023-04-07T09:40:40;100476.16;;;10.67;34.13
45369;BME280;51342;55.250;37.668;2023-04-07T09:43:16;100475.56;;;10.71;34.11
45369;BME280;51342;55.250;37.668;2023-04-07T09:45:48;100459.22;;;10.72;34.43
45369;BME280;51342;55.250;37.668;2023-04-07T09:48:20;100473.38;;;10.77;33.17
45369;BME280;51342;55.250;37.668;2023-04-07T09:51:04;100479.31;;;10.63;33.65
45369;BME280;51342;55.250;37.668;2023-04-07T09:53:47;100480.13;;;10.61;33.85
45369;BME280;51342;55.250;37.668;2023-04-07T09:56:20;100479.75;;;10.69;34.22
45369;BME280;51342;55.250;37.668;2023-04-07T09:58:54;100469.38;;;10.69;33.96
45369;BME280;51342;55.250;37.668;2023-04-07T10:01:26;100457.34;;;10.69;34.13
45369;BME280;51342;55.250;37.668;2023-04-07T10:03:58;100472.72;;;10.79;34.23
45369;BME280;51342;55.250;37.668;2023-04-07T10:06:30;100454.50;;;10.78;35.27
45369;BME280;51342;55.250;37.668;2023-04-07T10:09:01;100473.13;;;10.85;33.58
45369;BME280;51342;55.250;37.668;2023-04-07T10:11:33;100478.00;;;10.81;33.59
45369;BME280;51342;55.250;37.668;2023-04-07T10:14:04;100471.03;;;10.80;33.90
45369;BME280;51342;55.250;37.668;2023-04-07T10:16:41;100462.03;;;10.75;33.39
45369;BME280;51342;55.250;37.668;2023-04-07T10:19:13;100465.44;;;10.74;33.42
45369;BME280;51342;55.250;37.668;2023-04-07T10:21:48;100464.63;;;10.75;32.65
45369;BME280;51342;55.250;37.668;2023-04-07T10:27:32;100449.50;;;10.81;33.49
45369;BME280;51342;55.250;37.668;2023-04-07T10:30:06;100457.22;;;10.93;33.22
45369;BME280;51342;55.250;37.668;2023-04-07T10:32:50;100459.72;;;10.91;33.13
45369;BME280;51342;55.250;37.668;2023-04-07T10:35:22;100468.38;;;10.92;33.65
45369;BME280;51342;55.250;37.668;2023-04-07T10:40:37;100463.44;;;10.83;32.10
45369;BME280;51342;55.250;37.668;2023-04-07T10:43:09;100471.13;;;10.81;32.40
45369;BME280;51342;55.250;37.668;2023-04-07T10:48:17;100464.47;;;10.85;32.40
45369;BME280;51342;55.250;37.668;2023-04-07T10:51:12;100470.44;;;10.84;32.54
45369;BME280;51342;55.250;37.668;2023-04-07T10:54:17;100473.03;;;10.84;32.71
45369;BME280;51342;55.250;37.668;2023-04-07T10:59:34;100474.22;;;10.89;32.52
45369;BME280;51342;55.250;37.668;2023-04-07T11:04:44;100481.41;;;10.93;31.77
45369;BME280;51342;55.250;37.668;2023-04-07T11:07:16;100471.53;;;10.87;32.19
45369;BME280;51342;55.250;37.668;2023-04-07T11:09:49;100481.22;;;10.90;31.88
45369;BME280;51342;55.250;37.668;2023-04-07T11:12:22;100467.56;;;10.93;32.20
45369;BME280;51342;55.250;37.668;2023-04-07T11:14:53;100475.56;;;10.96;32.14
45369;BME280;51342;55.250;37.668;2023-04-07T11:17:25;100471.94;;;10.94;31.53
45369;BME280;51342;55.250;37.668;2023-04-07T11:19:58;100476.13;;;10.92;31.87
45369;BME280;51342;55.250;37.668;2023-04-07T11:22:29;100467.06;;;10.85;30.74
45369;BME280;51342;55.250;37.668;2023-04-07T11:25:03;100473.72;;;10.81;31.34
45369;BME280;51342;55.250;37.668;2023-04-07T11:27:50;100466.34;;;10.87;31.43
45369;BME280;51342;55.250;37.668;2023-04-07T11:30:21;100472.44;;;10.88;31.48
45369;BME280;51342;55.250;37.668;2023-04-07T11:32:52;100473.06;;;10.97;31.32
45369;BME280;51342;55.250;37.668;2023-04-07T11:35:24;100468.56;;;10.95;30.88
45369;BME280;51342;55.250;37.668;2023-04-07T11:37:59;100472.66;;;10.91;30.63
45369;BME280;51342;55.250;37.668;2023-04-07T11:40:34;100467.25;;;10.88;29.89
45369;BME280;51342;55.250;37.668;2023-04-07T11:43:17;100462.78;;;10.85;30.25
45369;BME280;51342;55.250;37.668;2023-04-07T11:48:39;100467.66;;;10.94;29.88
45369;BME280;51342;55.250;37.668;2023-04-07T11:51:21;100454.72;;;10.94;29.88
45369;BME280;51342;55.250;37.668;2023-04-07T11:53:54;100458.13;;;10.93;29.34
45369;BME280;51342;55.250;37.668;2023-04-07T11:56:26;100461.03;;;10.98;29.94
45369;BME280;51342;55.250;37.668;2023-04-07T11:58:58;100457.94;;;11.03;30.37
45369;BME280;51342;55.250;37.668;2023-04-07T12:01:39;100454.88;;;11.09;30.87
45369;BME280;51342;55.250;37.668;2023-04-07T12:04:15;100450.00;;;11.13;30.48
45369;BME280;51342;55.250;37.668;2023-04-07T12:06:47;100456.97;;;11.14;30.58
45369;BME280;51342;55.250;37.668;2023-04-07T12:09:29;100463.75;;;11.12;30.63
45369;BME280;51342;55.250;37.668;2023-04-07T12:12:05;100456.00;;;11.12;31.08
45369;BME280;51342;55.250;37.668;2023-04-07T12:14:37;100457.97;;;11.17;29.96
45369;BME280;51342;55.250;37.668;2023-04-07T12:17:22;100458.66;;;11.14;30.27
45369;BME280;51342;55.250;37.668;2023-04-07T12:19:54;100467.56;;;11.18;29.83
45369;BME280;51342;55.250;37.668;2023-04-07T12:22:26;100465.53;;;11.13;29.84
45369;BME280;51342;55.250;37.668;2023-04-07T12:24:57;100456.75;;;11.11;29.54
45369;BME280;51342;55.250;37.668;2023-04-07T12:27:28;100460.16;;;11.10;29.95
45369;BME280;51342;55.250;37.668;2023-04-07T12:30:00;100450.28;;;11.05;30.29
45369;BME280;51342;55.250;37.668;2023-04-07T12:32:31;100459.34;;;11.11;30.52
45369;BME280;51342;55.250;37.668;2023-04-07T12:35:04;100456.25;;;11.04;29.75
45369;BME280;51342;55.250;37.668;2023-04-07T12:37:36;100452.34;;;10.97;29.35
45369;BME280;51342;55.250;37.668;2023-04-07T12:40:07;100458.53;;;10.99;29.43
45369;BME280;51342;55.250;37.668;2023-04-07T12:42:39;100457.72;;;11.00;29.13
45369;BME280;51342;55.250;37.668;2023-04-07T12:45:11;100458.66;;;11.01;29.65
45369;BME280;51342;55.250;37.668;2023-04-07T12:47:43;100452.44;;;10.99;29.92
45369;BME280;51342;55.250;37.668;2023-04-07T12:50:15;100461.53;;;11.05;30.12
45369;BME280;51342;55.250;37.668;2023-04-07T12:52:47;100450.81;;;11.12;30.55
45369;BME280;51342;55.250;37.668;2023-04-07T12:55:18;100452.59;;;11.13;29.30
45369;BME280;51342;55.250;37.668;2023-04-07T12:57:50;100457.78;;;11.13;30.31
45369;BME280;51342;55.250;37.668;2023-04-07T13:00:25;100439.34;;;11.09;30.01
45369;BME280;51342;55.250;37.668;2023-04-07T13:02:56;100457.38;;;11.07;30.07
45369;BME280;51342;55.250;37.668;2023-04-07T13:05:28;100445.81;;;11.02;30.54
45369;BME280;51342;55.250;37.668;2023-04-07T13:08:00;100453.75;;;11.05;30.87
45369;BME280;51342;55.250;37.668;2023-04-07T13:10:31;100458.16;;;11.06;30.16
45369;BME280;51342;55.250;37.668;2023-04-07T13:13:02;100448.28;;;11.01;30.54
45369;BME280;51342;55.250;37.668;2023-04-07T13:15:34;100449.97;;;11.00;30.97
45369;BME280;51342;55.250;37.668;2023-04-07T13:18:06;100451.66;;;11.00;31.09
45369;BME280;51342;55.250;37.668;2023-04-07T13:20:38;100452.53;;;11.00;31.33
45369;BME280;51342;55.250;37.668;2023-04-07T13:23:09;100453.47;;;11.01;31.61
45369;BME280;51342;55.250;37.668;2023-04-07T13:25:41;100453.34;;;10.99;31.38
45369;BME280;51342;55.250;37.668;2023-04-07T13:28:12;100457.84;;;11.02;31.04
45369;BME280;51342;55.250;37.668;2023-04-07T13:30:44;100454.53;;;10.91;31.00
45369;BME280;51342;55.250;37.668;2023-04-07T13:33:16;100460.50;;;10.90;30.28
45369;BME280;51342;55.250;37.668;2023-04-07T13:35:47;100460.28;;;10.87;30.52
45369;BME280;51342;55.250;37.668;2023-04-07T13:38:18;100457.50;;;10.84;30.77
45369;BME280;51342;55.250;37.668;2023-04-07T13:40:50;100446.59;;;10.76;30.88